Time;durP1;ratioP1;P1;durP2;ratioP2;P2;SDS_P1;SDS_P2;PMS_P1;PMS_P2;Temp;Humidity;BMP_temperature;BMP_pressure;BME280_temperature;BME280_humidity;BME280_pressure;Samples;Min_cycle;Max_cycle;Signal;HPM_P1;HPM_P2
2022/06/19 03:35:52;;;;;;;14.03;9.50;;;;;;;26.73;59.69;98525.03;5004017;28;20527;-82
2022/06/19 03:38:19;;;;;;;10.73;9.20;;;;;;;26.68;60.10;98527.56;5093186;28;21267;-82
2022/06/19 03:40:46;;;;;;;12.73;8.67;;;;;;;26.54;60.86;98524.00;5093854;28;21120;-82
2022/06/19 03:43:13;;;;;;;13.10;9.57;;;;;;;26.52;60.96;98525.28;5093711;28;20430;-81
2022/06/19 03:45:40;;;;;;;10.80;9.20;;;;;;;26.60;60.84;98534.19;5093728;28;21078;-82
2022/06/19 03:48:07;;;;;;;12.30;8.73;;;;;;;26.78;60.26;98527.97;5092012;28;20464;-82
2022/06/19 03:50:34;;;;;;;11.03;9.50;;;;;;;26.73;60.53;98527.78;5093405;28;20539;-82
2022/06/19 03:53:02;;;;;;;13.10;9.57;;;;;;;26.80;60.36;98534.13;5093751;28;21157;-82
2022/06/19 03:55:28;;;;;;;13.27;9.60;;;;;;;26.69;60.89;98542.25;5093350;28;20468;-83
2022/06/19 03:57:55;;;;;;;12.50;9.70;;;;;;;26.72;61.09;98542.63;5093028;28;20446;-82
2022/06/19 04:00:22;;;;;;;12.53;9.30;;;;;;;26.70;61.18;98539.25;5093665;28;21087;-81
2022/06/19 04:02:48;;;;;;;14.43;9.70;;;;;;;26.63;61.54;98532.91;5093634;28;21245;-82
2022/06/19 04:05:18;;;;;;;10.90;9.87;;;;;;;26.47;62.31;98536.13;5092974;28;20486;-82
2022/06/19 04:07:46;;;;;;;11.47;9.10;;;;;;;26.55;61.97;98538.69;5092339;28;20449;-82
2022/06/19 04:10:15;;;;;;;9.97;8.23;;;;;;;26.51;62.30;98540.16;5092948;28;20521;-82
2022/06/19 04:12:42;;;;;;;15.57;9.80;;;;;;;26.44;62.76;98544.88;5093125;28;20537;-82
2022/06/19 04:15:10;;;;;;;12.70;9.30;;;;;;;26.55;62.37;98538.69;5092812;28;20824;-82
2022/06/19 04:17:37;;;;;;;15.00;9.80;;;;;;;26.58;62.21;98536.34;5092461;28;20427;-82
2022/06/19 04:20:05;;;;;;;10.80;9.67;;;;;;;26.67;61.84;98539.69;5092493;28;20868;-82
2022/06/19 04:22:32;;;;;;;16.23;9.73;;;;;;;26.65;62.26;98546.50;5092048;28;20615;-82
2022/06/19 04:24:58;;;;;;;14.20;9.77;;;;;;;26.80;61.83;98547.94;5092562;28;20418;-83
2022/06/19 04:27:26;;;;;;;13.17;10.00;;;;;;;26.77;61.84;98550.25;5092849;28;20872;-82
2022/06/19 04:29:53;;;;;;;12.83;9.70;;;;;;;26.86;61.57;98548.94;5092596;28;20427;-82
2022/06/19 04:32:20;;;;;;;12.47;10.33;;;;;;;26.94;61.50;98553.38;5097490;28;20921;-82
2022/06/19 04:34:46;;;;;;;14.30;9.87;;;;;;;27.02;61.10;98550.34;5112581;28;20580;-82
2022/06/19 04:37:13;;;;;;;11.73;10.17;;;;;;;27.04;61.27;98548.22;5113149;28;20910;-82
2022/06/19 04:39:40;;;;;;;15.93;10.37;;;;;;;27.07;61.25;98553.31;5112800;28;20425;-81
2022/06/19 04:42:07;;;;;;;10.53;9.60;;;;;;;27.02;61.85;98547.59;5108056;28;21027;-82
2022/06/19 04:44:35;;;;;;;13.77;10.80;;;;;;;27.02;61.70;98545.69;5092404;28;20476;-83
2022/06/19 04:47:02;;;;;;;11.07;9.07;;;;;;;27.03;62.09;98561.19;5092055;28;20430;-82
2022/06/19 04:49:28;;;;;;;13.00;10.67;;;;;;;27.08;62.07;98557.75;5092054;28;20420;-82
2022/06/19 04:51:55;;;;;;;11.17;10.03;;;;;;;27.13;62.10;98569.00;5092019;28;21214;-82
2022/06/19 04:54:21;;;;;;;12.50;9.27;;;;;;;27.04;62.49;98559.28;5092097;28;20553;-81
2022/06/19 04:56:48;;;;;;;12.33;9.97;;;;;;;27.17;62.23;98550.91;5092459;28;20927;-81
2022/06/19 04:59:15;;;;;;;11.07;9.90;;;;;;;27.21;62.14;98557.72;5092130;28;20512;-82
2022/06/19 05:01:43;;;;;;;12.13;10.60;;;;;;;27.24;62.36;98567.47;5091721;28;20438;-82
2022/06/19 05:04:12;;;;;;;11.80;10.23;;;;;;;27.39;61.76;98569.94;5089290;28;20438;-81
2022/06/19 05:06:38;;;;;;;12.67;10.20;;;;;;;27.29;62.15;98559.34;5092015;28;20453;-80
2022/06/19 05:09:07;;;;;;;11.40;10.27;;;;;;;27.44;61.62;98561.81;5091672;28;20446;-80
2022/06/19 05:11:34;;;;;;;13.90;9.80;;;;;;;27.50;61.38;98571.13;5091889;28;20919;-81
2022/06/19 05:14:02;;;;;;;13.43;10.60;;;;;;;27.56;61.33;98562.78;5091118;28;20956;-80
2022/06/19 05:16:30;;;;;;;13.63;10.30;;;;;;;27.62;61.36;98566.59;5091459;28;20433;-83
2022/06/19 05:18:58;;;;;;;55.37;20.87;;;;;;;27.66;61.15;98559.53;5091698;28;20505;-81
2022/06/19 05:21:26;;;;;;;12.37;10.30;;;;;;;27.76;61.11;98557.09;5091768;28;21008;-83
2022/06/19 05:23:54;;;;;;;12.53;11.23;;;;;;;27.88;60.70;98556.41;5091260;28;20438;-82
2022/06/19 05:26:24;;;;;;;24.77;12.83;;;;;;;27.88;60.28;98556.41;5091626;28;20746;-81
2022/06/19 05:28:51;;;;;;;17.20;11.33;;;;;;;27.94;60.16;98553.56;5091580;28;20943;-81
2022/06/19 05:31:19;;;;;;;14.43;10.37;;;;;;;27.93;60.29;98571.25;5091621;28;20960;-82
2022/06/19 05:33:46;;;;;;;14.60;10.60;;;;;;;28.03;59.13;98566.03;5090708;28;20437;-80
2022/06/19 05:36:15;;;;;;;14.23;10.27;;;;;;;28.03;59.46;98571.56;5090075;28;20556;-81
2022/06/19 05:38:41;;;;;;;11.20;10.07;;;;;;;28.11;58.85;98580.66;5090363;28;20441;-82
2022/06/19 05:41:08;;;;;;;11.07;10.07;;;;;;;28.14;58.39;98572.75;5091555;28;20442;-83
2022/06/19 05:43:36;;;;;;;12.40;9.73;;;;;;;28.23;58.26;98565.84;5091366;28;20513;-83
2022/06/19 05:46:05;;;;;;;16.90;10.27;;;;;;;28.25;57.52;98558.16;5091780;28;20553;-84
2022/06/19 05:48:33;;;;;;;10.57;9.40;;;;;;;28.29;57.63;98561.34;5090919;28;20517;-83
2022/06/19 05:51:03;;;;;;;12.10;9.43;;;;;;;28.40;56.96;98570.78;5089857;28;20426;-83
2022/06/19 05:53:34;;;;;;;11.17;9.77;;;;;;;28.48;56.50;98574.13;5087513;28;20525;-84
2022/06/19 05:56:00;;;;;;;11.70;10.30;;;;;;;28.56;56.12;98583.19;5091570;28;20955;-83
2022/06/19 05:58:27;;;;;;;13.07;9.97;;;;;;;28.54;56.04;98577.03;5091262;28;20429;-84
2022/06/19 06:00:54;;;;;;;12.73;9.53;;;;;;;28.42;56.08;98572.22;5093432;28;20521;-84
2022/06/19 06:03:22;;;;;;;12.63;10.30;;;;;;;28.47;56.40;98577.97;5095810;28;20453;-84
2022/06/19 06:05:50;;;;;;;11.80;9.80;;;;;;;28.63;55.80;98581.22;5095599;28;20441;-84
2022/06/19 06:08:17;;;;;;;11.27;10.30;;;;;;;28.88;54.54;98587.50;5095702;28;20521;-85
2022/06/19 06:10:46;;;;;;;11.67;9.33;;;;;;;29.01;53.93;98578.19;5095061;28;20468;-87
2022/06/19 06:13:13;;;;;;;13.00;10.03;;;;;;;29.07;53.61;98581.94;5094813;28;20438;-87
2022/06/19 06:15:40;;;;;;;11.43;9.20;;;;;;;28.94;53.96;98571.03;5075726;28;20478;-86
2022/06/19 06:18:07;;;;;;;12.60;8.80;;;;;;;29.04;53.34;98583.25;5075582;28;20447;-87
2022/06/19 06:20:34;;;;;;;13.17;9.53;;;;;;;29.09;53.47;98577.03;5095248;28;20447;-88
2022/06/19 06:23:00;;;;;;;9.77;8.80;;;;;;;29.05;53.41;98575.78;5115869;28;20420;-86
2022/06/19 06:25:27;;;;;;;9.63;8.27;;;;;;;29.22;52.69;98574.09;5115714;28;20417;-86
2022/06/19 06:27:55;;;;;;;10.27;9.37;;;;;;;29.26;52.41;98575.31;5116645;28;20489;-86
2022/06/19 06:30:22;;;;;;;10.23;9.20;;;;;;;29.52;51.60;98576.00;5115817;28;20479;-88
2022/06/19 06:32:48;;;;;;;9.57;8.77;;;;;;;29.66;50.69;98585.78;5096479;28;20517;-88
2022/06/19 06:35:15;;;;;;;11.83;8.47;;;;;;;29.77;50.80;98577.78;5095095;28;20487;-85
2022/06/19 06:37:42;;;;;;;11.33;8.77;;;;;;;29.62;50.69;98601.19;5094269;28;20533;-85
2022/06/19 06:40:10;;;;;;;12.30;8.60;;;;;;;29.85;49.92;98589.38;5094588;28;20430;-85
2022/06/19 06:42:37;;;;;;;9.80;8.80;;;;;;;30.00;49.33;98588.06;5094566;28;20430;-85
2022/06/19 06:45:07;;;;;;;9.67;8.63;;;;;;;30.12;48.98;98588.88;5094095;28;20537;-84
2022/06/19 06:47:34;;;;;;;14.00;9.10;;;;;;;30.10;49.34;98589.16;5094402;28;20574;-84
2022/06/19 06:50:01;;;;;;;11.47;8.53;;;;;;;30.31;48.50;98573.00;5094695;28;20444;-83
2022/06/19 06:52:27;;;;;;;10.90;8.90;;;;;;;30.41;48.10;98580.72;5094633;28;20509;-84
2022/06/19 06:54:54;;;;;;;15.43;8.50;;;;;;;30.43;48.08;98586.88;5076813;28;20493;-82
2022/06/19 06:57:24;;;;;;;13.17;8.97;;;;;;;30.04;48.66;98594.81;5073477;28;20423;-83
2022/06/19 06:59:51;;;;;;;11.10;8.70;;;;;;;30.20;48.66;98587.72;5074016;28;20434;-82
2022/06/19 07:02:19;;;;;;;10.60;8.50;;;;;;;30.39;47.71;98583.72;5073471;28;20422;-83
2022/06/19 07:04:46;;;;;;;10.27;8.20;;;;;;;30.54;47.36;98581.31;5088030;28;20529;-84
2022/06/19 07:07:12;;;;;;;12.47;8.17;;;;;;;30.76;46.67;98578.72;5094046;28;20786;-82
2022/06/19 07:09:39;;;;;;;9.83;8.33;;;;;;;30.86;46.26;98582.84;5093703;28;20513;-82
2022/06/19 07:12:07;;;;;;;9.63;8.73;;;;;;;30.70;46.69;98589.97;5092784;28;20528;-83
2022/06/19 07:14:33;;;;;;;8.50;7.70;;;;;;;30.85;46.47;98586.72;5093545;28;20517;-83
2022/06/19 07:17:00;;;;;;;10.60;8.20;;;;;;;31.02;46.24;98582.06;5093439;28;20470;-83
2022/06/19 07:19:28;;;;;;;9.17;8.27;;;;;;;31.15;45.74;98581.78;5093526;28;20446;-83
2022/06/19 07:21:55;;;;;;;9.53;8.60;;;;;;;31.13;45.60;98589.53;5093045;28;20879;-83
2022/06/19 07:24:21;;;;;;;11.57;8.53;;;;;;;31.11;45.57;98590.88;5093466;28;20516;-82
2022/06/19 07:26:48;;;;;;;9.40;8.60;;;;;;;30.68;46.37;98589.38;5093150;28;20437;-83
2022/06/19 07:29:14;;;;;;;9.03;8.23;;;;;;;30.69;46.67;98583.59;5093996;28;20430;-83
2022/06/19 07:31:41;;;;;;;11.50;8.60;;;;;;;30.66;47.01;98578.50;5093761;28;20948;-83
2022/06/19 07:34:08;;;;;;;10.93;9.10;;;;;;;30.94;46.29;98572.19;5093270;28;20521;-83
2022/06/19 07:36:36;;;;;;;13.70;9.03;;;;;;;30.66;46.22;98572.09;5092733;28;20566;-82
2022/06/19 07:39:05;;;;;;;10.00;9.00;;;;;;;30.55;47.08;98583.00;5073283;28;20443;-83
2022/06/19 07:41:31;;;;;;;11.50;9.30;;;;;;;30.40;46.63;98581.81;5073036;28;20463;-82
2022/06/19 07:43:58;;;;;;;9.00;8.20;;;;;;;30.30;47.59;98591.59;5073544;28;20419;-82
2022/06/19 07:46:25;;;;;;;11.97;8.03;;;;;;;30.33;47.23;98584.72;5073404;28;20530;-83
2022/06/19 07:51:37;;;;;;;9.37;8.40;;;;;;;30.91;45.72;98597.72;5097298;28;20949;-83
2022/06/19 07:54:04;;;;;;;8.90;8.07;;;;;;;30.84;45.95;98590.56;5093013;28;20540;-83
2022/06/19 07:56:31;;;;;;;10.77;8.57;;;;;;;31.30;44.70;98580.41;5092971;28;20498;-82
2022/06/19 07:58:58;;;;;;;8.80;7.97;;;;;;;30.84;45.81;98583.06;5093150;28;20525;-84
2022/06/19 08:01:24;;;;;;;9.87;8.73;;;;;;;30.43;47.05;98579.38;5092886;28;20483;-83
2022/06/19 08:03:51;;;;;;;10.00;8.00;;;;;;;30.42;46.72;98574.94;5092967;28;20971;-83
2022/06/19 08:06:19;;;;;;;12.53;7.93;;;;;;;30.61;46.83;98575.63;5092691;28;20544;-83
2022/06/19 08:08:48;;;;;;;15.53;8.70;;;;;;;30.77;45.63;98574.84;5093087;28;20435;-83
2022/06/19 08:11:14;;;;;;;10.43;8.53;;;;;;;31.22;44.62;98575.25;5092407;28;20437;-82
2022/06/19 08:13:41;;;;;;;9.90;8.83;;;;;;;31.28;44.91;98575.09;5092557;28;20460;-83
2022/06/19 08:16:10;;;;;;;10.63;8.23;;;;;;;31.24;44.59;98584.19;5092462;28;20535;-83
2022/06/19 08:18:39;;;;;;;13.40;8.63;;;;;;;31.23;44.63;98601.94;5092709;28;20444;-84
2022/06/19 08:21:06;;;;;;;9.63;8.53;;;;;;;31.19;44.79;98593.25;5093176;28;20462;-83
2022/06/19 08:23:33;;;;;;;11.20;8.47;;;;;;;31.26;44.79;98593.13;5091654;28;20442;-83
2022/06/19 08:26:01;;;;;;;10.70;8.40;;;;;;;31.49;43.58;98590.25;5093114;28;21242;-82
2022/06/19 08:28:32;;;;;;;15.93;8.57;;;;;;;31.18;44.20;98602.69;5092451;28;20482;-82
2022/06/19 08:30:59;;;;;;;10.80;8.67;;;;;;;31.66;43.33;98606.13;5092002;28;20441;-83
2022/06/19 08:33:26;;;;;;;9.40;8.00;;;;;;;31.59;42.99;98614.63;5092586;28;20856;-82
2022/06/19 08:35:57;;;;;;;13.43;8.00;;;;;;;31.53;43.04;98612.84;5092229;28;20490;-83
2022/06/19 08:38:30;;;;;;;11.97;8.00;;;;;;;31.56;42.92;98612.34;5092550;28;21087;-83
2022/06/19 08:41:15;;;;;;;12.60;8.30;;;;;;;31.44;43.65;98597.66;5092315;28;20866;-83
2022/06/19 08:44:05;;;;;;;11.50;8.00;;;;;;;31.92;42.20;98608.25;5092635;28;20426;-83
2022/06/19 08:46:44;;;;;;;10.10;8.70;;;;;;;31.90;42.11;98604.03;5092145;28;20422;-83
2022/06/19 08:49:32;;;;;;;10.00;8.17;;;;;;;31.99;41.98;98603.41;5092230;28;20434;-83
2022/06/19 08:52:09;;;;;;;10.83;7.90;;;;;;;31.96;42.11;98609.47;5071809;28;20466;-84
2022/06/19 08:54:46;;;;;;;11.80;8.80;;;;;;;31.73;42.46;98609.59;5072020;28;20519;-82
2022/06/19 08:57:23;;;;;;;10.60;8.20;;;;;;;31.66;42.98;98606.97;5072115;28;20577;-82
2022/06/19 09:00:04;;;;;;;11.07;7.93;;;;;;;31.57;42.87;98608.50;5074861;28;20784;-83
2022/06/19 09:02:40;;;;;;;10.23;8.30;;;;;;;31.84;41.93;98611.47;5091767;28;20430;-83
2022/06/19 09:08:50;;;;;;;12.27;8.43;;;;;;;32.18;40.18;98600.38;5092118;28;20429;-83
2022/06/19 09:11:32;;;;;;;14.23;8.07;;;;;;;31.92;40.37;98611.03;5091973;28;20430;-83
2022/06/19 09:14:10;;;;;;;11.40;8.13;;;;;;;31.66;40.19;98618.13;5092111;28;20987;-83
2022/06/19 09:16:40;;;;;;;10.27;7.67;;;;;;;31.56;40.96;98610.41;5091514;28;20466;-82
2022/06/19 09:19:14;;;;;;;12.90;8.27;;;;;;;31.35;41.36;98613.88;5091622;28;20605;-83
2022/06/19 09:21:58;;;;;;;14.20;8.80;;;;;;;31.72;40.90;98613.47;5092240;28;20846;-82
2022/06/19 09:24:47;;;;;;;15.77;8.20;;;;;;;31.83;40.60;98611.72;5091649;28;20522;-83
2022/06/19 09:27:16;;;;;;;8.10;7.40;;;;;;;31.44;41.59;98620.75;5092191;28;20426;-83
2022/06/19 09:29:49;;;;;;;15.90;8.20;;;;;;;31.72;40.95;98631.00;5092089;28;20439;-83
2022/06/19 09:32:23;;;;;;;14.30;8.60;;;;;;;31.79;41.52;98631.72;5091562;28;20512;-83
2022/06/19 09:34:55;;;;;;;11.77;8.93;;;;;;;32.00;41.11;98626.53;5090892;28;20474;-83
2022/06/19 09:37:30;;;;;;;11.23;8.80;;;;;;;31.97;41.38;98627.84;5089185;28;20480;-83
2022/06/19 09:40:02;;;;;;;9.70;7.80;;;;;;;31.53;42.15;98618.41;5096097;28;20432;-83
2022/06/19 09:42:35;;;;;;;11.23;8.53;;;;;;;31.46;42.39;98617.72;5096257;28;20454;-83
2022/06/19 09:45:08;;;;;;;13.53;9.30;;;;;;;31.33;43.17;98614.09;5095644;28;20512;-83
2022/06/19 09:47:43;;;;;;;13.90;9.13;;;;;;;31.44;42.79;98614.34;5095905;28;20437;-84
2022/06/19 09:50:18;;;;;;;16.20;9.63;;;;;;;31.90;42.17;98626.31;5095780;28;20428;-83
2022/06/19 09:52:52;;;;;;;8.43;7.57;;;;;;;31.59;42.59;98620.19;5095941;28;20463;-84
2022/06/19 09:55:24;;;;;;;15.33;10.43;;;;;;;31.95;42.05;98615.25;5095273;28;20430;-83
2022/06/19 09:57:59;;;;;;;10.30;8.20;;;;;;;32.13;41.32;98625.34;5095362;28;21042;-83
2022/06/19 10:00:32;;;;;;;15.40;9.57;;;;;;;31.72;42.10;98624.59;5095327;28;20425;-83
2022/06/19 10:03:02;;;;;;;12.63;9.33;;;;;;;31.97;42.09;98618.66;5095301;28;20487;-84
2022/06/19 10:05:37;;;;;;;17.27;9.20;;;;;;;32.11;42.02;98625.59;5095253;28;20782;-83
2022/06/19 10:08:10;;;;;;;10.50;8.57;;;;;;;32.25;41.38;98616.88;5094578;28;20430;-83
2022/06/19 10:10:42;;;;;;;9.63;8.63;;;;;;;32.70;40.49;98601.97;5095183;28;20422;-83
2022/06/19 10:13:16;;;;;;;14.07;10.10;;;;;;;32.80;39.98;98602.97;5095830;28;20430;-83
2022/06/19 10:15:45;;;;;;;13.03;8.90;;;;;;;32.90;39.71;98607.84;5095213;28;20504;-83
2022/06/19 10:18:16;;;;;;;11.37;8.80;;;;;;;33.07;39.49;98602.22;5095159;28;20521;-83
2022/06/19 10:20:52;;;;;;;16.23;9.10;;;;;;;32.86;39.21;98603.91;5095578;28;20977;-83
2022/06/19 10:23:28;;;;;;;13.10;8.27;;;;;;;32.40;40.30;98598.50;5095008;28;20426;-83
2022/06/19 10:26:16;;;;;;;13.33;9.13;;;;;;;32.39;40.28;98601.53;5094952;28;20509;-83
2022/06/19 10:29:08;;;;;;;14.93;8.70;;;;;;;32.25;40.44;98584.34;5094460;28;20437;-83
2022/06/19 10:31:50;;;;;;;13.90;9.27;;;;;;;32.31;40.86;98596.38;5095135;28;20505;-83
2022/06/19 10:34:27;;;;;;;11.87;8.47;;;;;;;32.76;39.78;98592.59;5094860;28;21021;-83
2022/06/19 10:37:04;;;;;;;12.30;8.43;;;;;;;32.88;39.26;98590.56;5094853;28;20588;-83
2022/06/19 10:39:42;;;;;;;18.73;8.70;;;;;;;33.15;38.43;98596.22;5094872;28;20437;-84
2022/06/19 10:42:19;;;;;;;13.87;8.50;;;;;;;32.99;39.00;98591.50;5095399;28;21304;-84
2022/06/19 10:45:16;;;;;;;18.80;9.63;;;;;;;33.25;38.30;98598.28;5093906;28;20900;-84
2022/06/19 10:47:59;;;;;;;837.97;784.33;;;;;;;33.23;38.20;98589.31;5090170;28;20445;-85
2022/06/19 10:50:36;;;;;;;828.30;774.00;;;;;;;33.38;37.82;98591.44;5094662;28;20487;-83
2022/06/19 10:53:20;;;;;;;658.57;617.57;;;;;;;32.93;38.81;98576.66;5092775;28;20436;-85
2022/06/19 10:55:52;;;;;;;9.37;8.43;;;;;;;33.21;38.20;98580.38;5095667;28;20487;-84
2022/06/19 10:58:22;;;;;;;9.80;7.90;;;;;;;33.57;37.44;98575.16;5093403;28;20462;-82
2022/06/19 11:04:06;;;;;;;10.30;9.00;;;;;;;33.93;37.18;98576.38;5096216;28;20811;-75
2022/06/19 11:04:10;;;;;;;11.43;7.97;;;;;;;34.28;36.02;98568.53;5092918;28;20428;-76
2022/06/19 11:06:41;;;;;;;12.97;8.37;;;;;;;34.35;35.57;98572.81;5093512;28;20454;-73
2022/06/19 11:09:14;;;;;;;14.63;9.73;;;;;;;34.22;35.84;98568.53;5093452;28;20434;-74
2022/06/19 11:11:44;;;;;;;16.20;9.13;;;;;;;34.40;35.81;98569.19;5093528;28;20421;-74
2022/06/19 11:14:13;;;;;;;11.43;8.60;;;;;;;34.20;35.92;98565.16;5093712;28;20406;-74
2022/06/19 11:16:56;;;;;;;15.23;8.30;;;;;;;33.97;35.90;98559.94;5093765;28;20815;-75
2022/06/19 11:19:43;;;;;;;11.93;8.43;;;;;;;34.30;35.95;98566.31;5094040;28;20440;-74
2022/06/19 11:22:31;;;;;;;11.37;8.13;;;;;;;33.81;36.71;98562.59;5092879;28;20453;-74
2022/06/19 11:25:24;;;;;;;17.90;8.40;;;;;;;34.34;35.75;98559.09;5093212;28;20529;-74
2022/06/19 11:27:52;;;;;;;44.27;40.77;;;;;;;33.91;36.41;98550.66;5093767;28;20840;-75
2022/06/19 11:30:27;;;;;;;13.17;8.90;;;;;;;33.40;37.47;98545.44;5093666;28;20441;-74
2022/06/19 11:32:55;;;;;;;11.17;9.20;;;;;;;33.99;36.48;98541.81;5093410;28;20426;-75
2022/06/19 11:35:24;;;;;;;11.47;7.40;;;;;;;34.34;36.36;98550.72;5092921;28;20469;-74
2022/06/19 11:37:54;;;;;;;13.30;8.10;;;;;;;34.58;36.02;98542.75;5093407;28;20505;-76
2022/06/19 11:40:30;;;;;;;15.20;8.77;;;;;;;34.76;35.40;98544.28;5092519;28;20444;-73
2022/06/19 11:42:59;;;;;;;12.30;9.30;;;;;;;34.70;35.30;98537.81;5093359;28;20469;-74
2022/06/19 11:45:29;;;;;;;12.20;8.37;;;;;;;34.70;35.99;98536.97;5092949;28;20521;-75
2022/06/19 11:48:07;;;;;;;13.73;8.70;;;;;;;34.75;35.64;98532.22;5093102;28;20484;-74
2022/06/19 11:50:53;;;;;;;13.97;9.73;;;;;;;34.84;35.37;98538.13;5092860;28;20445;-74
2022/06/19 11:53:24;;;;;;;10.90;8.23;;;;;;;34.88;35.29;98537.31;5089720;28;20521;-73
2022/06/19 11:55:52;;;;;;;19.20;9.20;;;;;;;34.81;35.50;98530.31;5093069;28;20454;-76
2022/06/19 11:58:28;;;;;;;15.70;8.30;;;;;;;34.85;35.33;98523.91;5092533;28;20505;-74
2022/06/19 12:01:00;;;;;;;15.23;8.17;;;;;;;34.81;35.48;98519.13;5092245;28;20539;-76
2022/06/19 12:03:30;;;;;;;18.07;16.13;;;;;;;34.77;35.32;98515.19;5093018;28;20441;-82
2022/06/19 12:06:01;;;;;;;16.43;7.60;;;;;;;34.37;36.10;98503.53;5093293;28;20442;-82
2022/06/19 12:08:31;;;;;;;14.23;7.40;;;;;;;34.43;35.99;98490.41;5093301;28;20411;-82
2022/06/19 12:11:02;;;;;;;14.20;8.10;;;;;;;34.62;36.49;98483.28;5092378;28;20445;-82
2022/06/19 12:13:32;;;;;;;12.00;8.63;;;;;;;34.76;36.12;98496.75;5093171;28;20880;-82
2022/06/19 12:16:02;;;;;;;15.43;7.83;;;;;;;34.96;35.48;98502.41;5093156;28;21007;-82
2022/06/19 12:18:31;;;;;;;15.00;9.27;;;;;;;34.96;35.51;98496.81;5091936;28;20462;-82
2022/06/19 12:21:17;;;;;;;23.23;7.87;;;;;;;34.99;35.73;98485.06;5092611;28;20513;-83
2022/06/19 12:23:53;;;;;;;12.30;8.23;;;;;;;35.09;35.62;98487.03;5092892;28;20444;-84
2022/06/19 12:26:32;;;;;;;11.73;8.77;;;;;;;35.19;35.95;98486.28;5092193;28;20836;-83
2022/06/19 12:29:06;;;;;;;15.27;8.40;;;;;;;35.16;35.79;98484.00;5092954;28;20777;-83
2022/06/19 12:31:37;;;;;;;9.20;8.27;;;;;;;34.82;36.10;98478.84;5092309;28;20531;-83
